UPS5DK ENGM-EDDK
Flight info
| Callsign | UPS5DK |
|---|---|
| Flight time | 1h 41m |
| Altitude | 36000 |
| Route | VIPPA P615 ALS M852 EKERN N125 ELSOB N850 LARBU Z189 RUNER T858 KOPAG |
| Aircraft | MD11/H-VGDW/C |
Departure
| Time | 2026-05-06 18:08 |
|---|---|
| Airport | Oslo-Gardermoen International Airport (ENGM) |
Arrival
| Time | 2026-05-06 19:50 |
|---|---|
| Airport | Cologne Bonn Airport (EDDK) |
| Time | Latitude | Longitude | Altitude | Speed | Heading |
|---|---|---|---|---|---|
| 2026-05-06 17:44 | 60.20946 | 11.09726 | 695 ft | 0 kts | 106° |
| 2026-05-06 17:55 | 60.20947 | 11.09723 | 695 ft | 2 kts | 106° |
| 2026-05-06 17:55 | 60.20951 | 11.09692 | 686 ft | 2 kts | 106° |
| 2026-05-06 17:55 | 60.20956 | 11.09659 | 689 ft | 2 kts | 64° |
| 2026-05-06 17:56 | 60.20952 | 11.09645 | 687 ft | 0 kts | 18° |
| 2026-05-06 18:00 | 60.20968 | 11.09655 | 685 ft | 4 kts | 18° |
| 2026-05-06 18:00 | 60.20992 | 11.09671 | 686 ft | 3 kts | 18° |
| 2026-05-06 18:00 | 60.21007 | 11.09681 | 687 ft | 2 kts | 18° |
| 2026-05-06 18:01 | 60.21025 | 11.09681 | 688 ft | 3 kts | 348° |
| 2026-05-06 18:01 | 60.21053 | 11.09638 | 689 ft | 6 kts | 307° |
| 2026-05-06 18:01 | 60.21062 | 11.09586 | 684 ft | 0 kts | 285° |
| 2026-05-06 18:02 | 60.21063 | 11.09573 | 684 ft | 4 kts | 285° |
| 2026-05-06 18:02 | 60.21071 | 11.09521 | 687 ft | 3 kts | 287° |
| 2026-05-06 18:03 | 60.21075 | 11.09499 | 686 ft | 3 kts | 290° |
| 2026-05-06 18:03 | 60.21096 | 11.09447 | 689 ft | 5 kts | 330° |
| 2026-05-06 18:03 | 60.21136 | 11.09460 | 686 ft | 9 kts | 15° |
| 2026-05-06 18:03 | 60.21212 | 11.09502 | 688 ft | 13 kts | 15° |
| 2026-05-06 18:04 | 60.21296 | 11.09550 | 686 ft | 12 kts | 16° |
| 2026-05-06 18:04 | 60.21375 | 11.09596 | 691 ft | 13 kts | 16° |
| 2026-05-06 18:04 | 60.21462 | 11.09640 | 685 ft | 12 kts | 7° |
| 2026-05-06 18:04 | 60.21529 | 11.09585 | 691 ft | 11 kts | 314° |
| 2026-05-06 18:05 | 60.21555 | 11.09453 | 684 ft | 9 kts | 286° |
| 2026-05-06 18:05 | 60.21561 | 11.09410 | 686 ft | 0 kts | 285° |
| 2026-05-06 18:06 | 60.21565 | 11.09381 | 686 ft | 4 kts | 285° |
| 2026-05-06 18:06 | 60.21574 | 11.09307 | 687 ft | 7 kts | 284° |
| 2026-05-06 18:06 | 60.21570 | 11.09197 | 686 ft | 9 kts | 244° |
| 2026-05-06 18:06 | 60.21516 | 11.09113 | 684 ft | 9 kts | 196° |
| 2026-05-06 18:07 | 60.21496 | 11.09102 | 685 ft | 0 kts | 195° |
| 2026-05-06 18:07 | 60.21493 | 11.09101 | 685 ft | 2 kts | 195° |
| 2026-05-06 18:07 | 60.21394 | 11.09043 | 686 ft | 43 kts | 196° |
| 2026-05-06 18:08 | 60.20800 | 11.08701 | 683 ft | 134 kts | 196° |
| 2026-05-06 18:08 | 60.19658 | 11.08022 | 752 ft | 196 kts | 197° |
| 2026-05-06 18:08 | 60.18413 | 11.07304 | 1904 ft | 178 kts | 198° |
| 2026-05-06 18:08 | 60.17272 | 11.06506 | 3161 ft | 175 kts | 210° |
| 2026-05-06 18:09 | 60.16322 | 11.04876 | 3956 ft | 188 kts | 236° |
| 2026-05-06 18:09 | 60.15658 | 11.02402 | 4398 ft | 216 kts | 245° |
| 2026-05-06 18:09 | 60.15001 | 10.99484 | 4750 ft | 238 kts | 247° |
| 2026-05-06 18:09 | 60.14332 | 10.96349 | 5253 ft | 250 kts | 247° |
| 2026-05-06 18:10 | 60.13624 | 10.93136 | 6044 ft | 252 kts | 246° |
| 2026-05-06 18:10 | 60.12905 | 10.89933 | 6862 ft | 252 kts | 246° |
| 2026-05-06 18:10 | 60.12164 | 10.86688 | 7198 ft | 266 kts | 245° |
| 2026-05-06 18:10 | 60.11127 | 10.83611 | 7669 ft | 269 kts | 223° |
| 2026-05-06 18:11 | 60.09512 | 10.81727 | 8164 ft | 273 kts | 200° |
| 2026-05-06 18:11 | 60.07709 | 10.80459 | 8639 ft | 275 kts | 203° |
| 2026-05-06 18:11 | 60.05942 | 10.78971 | 9146 ft | 276 kts | 204° |
| 2026-05-06 18:11 | 60.04179 | 10.77431 | 9646 ft | 277 kts | 204° |
| 2026-05-06 18:12 | 60.02399 | 10.75887 | 10032 ft | 282 kts | 204° |
| 2026-05-06 18:12 | 60.00529 | 10.74280 | 10172 ft | 304 kts | 205° |
| 2026-05-06 18:12 | 59.98518 | 10.72567 | 10310 ft | 331 kts | 204° |
| 2026-05-06 18:12 | 59.96356 | 10.70742 | 10950 ft | 340 kts | 205° |
| 2026-05-06 18:13 | 59.94168 | 10.68912 | 11829 ft | 343 kts | 205° |
| 2026-05-06 18:13 | 59.91952 | 10.67066 | 12695 ft | 345 kts | 206° |
| 2026-05-06 18:13 | 59.89722 | 10.65213 | 13528 ft | 348 kts | 207° |
| 2026-05-06 18:13 | 59.87477 | 10.63350 | 14268 ft | 351 kts | 207° |
| 2026-05-06 18:14 | 59.85213 | 10.61474 | 14981 ft | 353 kts | 207° |
| 2026-05-06 18:14 | 59.82937 | 10.59592 | 15687 ft | 355 kts | 207° |
| 2026-05-06 18:14 | 59.80641 | 10.57696 | 16363 ft | 358 kts | 207° |
| 2026-05-06 18:14 | 59.78358 | 10.55814 | 17037 ft | 360 kts | 207° |
| 2026-05-06 18:15 | 59.76040 | 10.53906 | 17700 ft | 362 kts | 207° |
| 2026-05-06 18:15 | 59.73691 | 10.51976 | 18325 ft | 365 kts | 207° |
| 2026-05-06 18:15 | 59.71327 | 10.50036 | 18858 ft | 367 kts | 207° |
| 2026-05-06 18:15 | 59.68955 | 10.48092 | 19404 ft | 370 kts | 208° |
| 2026-05-06 18:16 | 59.66566 | 10.46138 | 19910 ft | 372 kts | 208° |
| 2026-05-06 18:16 | 59.64194 | 10.44201 | 20428 ft | 375 kts | 208° |
| 2026-05-06 18:16 | 59.61774 | 10.42227 | 20940 ft | 378 kts | 208° |
| 2026-05-06 18:16 | 59.59303 | 10.40377 | 21435 ft | 384 kts | 202° |
| 2026-05-06 18:17 | 59.56684 | 10.39093 | 21953 ft | 390 kts | 198° |
| 2026-05-06 18:17 | 59.53990 | 10.38116 | 22434 ft | 395 kts | 196° |
| 2026-05-06 18:17 | 59.51258 | 10.37242 | 22963 ft | 398 kts | 195° |
| 2026-05-06 18:17 | 59.48502 | 10.36376 | 23509 ft | 401 kts | 195° |
| 2026-05-06 18:18 | 59.45728 | 10.35492 | 23966 ft | 404 kts | 196° |
| 2026-05-06 18:18 | 59.42955 | 10.34589 | 24478 ft | 405 kts | 196° |
| 2026-05-06 18:18 | 59.40170 | 10.33668 | 24997 ft | 406 kts | 196° |
| 2026-05-06 18:18 | 59.37406 | 10.32746 | 25518 ft | 408 kts | 196° |
| 2026-05-06 18:19 | 59.34564 | 10.31793 | 26031 ft | 410 kts | 196° |
| 2026-05-06 18:19 | 59.31780 | 10.30859 | 26518 ft | 412 kts | 196° |
| 2026-05-06 18:19 | 59.28942 | 10.29907 | 27025 ft | 414 kts | 196° |
| 2026-05-06 18:19 | 59.26092 | 10.28952 | 27497 ft | 416 kts | 196° |
| 2026-05-06 18:20 | 59.23232 | 10.27996 | 27990 ft | 418 kts | 196° |
| 2026-05-06 18:20 | 59.20353 | 10.27035 | 28468 ft | 420 kts | 196° |
| 2026-05-06 18:20 | 59.17452 | 10.26129 | 28926 ft | 424 kts | 194° |
| 2026-05-06 18:20 | 59.14498 | 10.25507 | 29383 ft | 429 kts | 192° |
| 2026-05-06 18:21 | 59.11506 | 10.25061 | 29811 ft | 432 kts | 191° |
| 2026-05-06 18:21 | 59.08493 | 10.24680 | 30177 ft | 435 kts | 191° |
| 2026-05-06 18:21 | 59.05497 | 10.24315 | 30468 ft | 438 kts | 190° |
| 2026-05-06 18:21 | 59.02456 | 10.23937 | 30810 ft | 438 kts | 191° |
| 2026-05-06 18:22 | 58.99404 | 10.23547 | 31189 ft | 438 kts | 191° |
| 2026-05-06 18:22 | 58.96352 | 10.23148 | 31567 ft | 438 kts | 191° |
| 2026-05-06 18:22 | 58.93311 | 10.22747 | 31947 ft | 438 kts | 191° |
| 2026-05-06 18:22 | 58.90272 | 10.22345 | 32300 ft | 438 kts | 191° |
| 2026-05-06 18:23 | 58.87235 | 10.21942 | 32667 ft | 437 kts | 191° |
| 2026-05-06 18:23 | 58.84200 | 10.21539 | 33017 ft | 437 kts | 191° |
| 2026-05-06 18:23 | 58.81168 | 10.21138 | 33363 ft | 437 kts | 191° |
| 2026-05-06 18:23 | 58.78136 | 10.20737 | 33696 ft | 436 kts | 190° |
| 2026-05-06 18:24 | 58.75130 | 10.20340 | 34005 ft | 436 kts | 190° |
| 2026-05-06 18:24 | 58.72101 | 10.19939 | 34223 ft | 437 kts | 190° |
| 2026-05-06 18:24 | 58.69069 | 10.19539 | 34435 ft | 438 kts | 190° |
| 2026-05-06 18:24 | 58.66020 | 10.19137 | 34631 ft | 439 kts | 190° |
| 2026-05-06 18:25 | 58.62966 | 10.18736 | 34822 ft | 440 kts | 190° |
| 2026-05-06 18:25 | 58.59904 | 10.18335 | 35011 ft | 441 kts | 189° |
| 2026-05-06 18:25 | 58.56837 | 10.17934 | 35187 ft | 442 kts | 189° |
| 2026-05-06 18:25 | 58.53760 | 10.17533 | 35376 ft | 443 kts | 189° |
| 2026-05-06 18:26 | 58.50724 | 10.17137 | 35548 ft | 444 kts | 189° |
| 2026-05-06 18:26 | 58.47640 | 10.16736 | 35719 ft | 445 kts | 189° |
| 2026-05-06 18:26 | 58.44546 | 10.16336 | 35903 ft | 445 kts | 189° |
| 2026-05-06 18:26 | 58.41442 | 10.15933 | 35944 ft | 448 kts | 189° |
| 2026-05-06 18:27 | 58.35215 | 10.15128 | 35959 ft | 449 kts | 189° |
| 2026-05-06 18:27 | 58.28978 | 10.14331 | 35963 ft | 449 kts | 189° |
| 2026-05-06 18:28 | 58.22730 | 10.13532 | 35959 ft | 449 kts | 189° |
| 2026-05-06 18:28 | 58.16498 | 10.12733 | 35967 ft | 449 kts | 189° |
| 2026-05-06 18:29 | 58.10307 | 10.11941 | 35969 ft | 448 kts | 189° |
| 2026-05-06 18:29 | 58.04082 | 10.11147 | 35965 ft | 448 kts | 189° |
| 2026-05-06 18:30 | 57.97849 | 10.10355 | 35962 ft | 448 kts | 189° |
| 2026-05-06 18:30 | 57.91623 | 10.09567 | 35965 ft | 448 kts | 189° |
| 2026-05-06 18:31 | 57.85389 | 10.08780 | 35965 ft | 448 kts | 189° |
| 2026-05-06 18:31 | 57.79165 | 10.07998 | 35964 ft | 448 kts | 188° |
| 2026-05-06 18:32 | 57.72963 | 10.07219 | 35966 ft | 451 kts | 188° |
| 2026-05-06 18:32 | 57.66668 | 10.06431 | 35967 ft | 454 kts | 188° |
| 2026-05-06 18:33 | 57.61411 | 10.05777 | 35964 ft | 456 kts | 188° |
| 2026-05-06 18:33 | 57.55077 | 10.04994 | 35964 ft | 456 kts | 188° |
| 2026-05-06 18:34 | 57.47715 | 10.04090 | 35962 ft | 456 kts | 188° |
| 2026-05-06 18:34 | 57.42448 | 10.03447 | 35965 ft | 456 kts | 188° |
| 2026-05-06 18:35 | 57.36114 | 10.02673 | 35967 ft | 456 kts | 188° |
| 2026-05-06 18:35 | 57.29777 | 10.01898 | 35967 ft | 456 kts | 188° |
| 2026-05-06 18:36 | 57.23422 | 10.01123 | 35963 ft | 457 kts | 188° |
| 2026-05-06 18:36 | 57.17114 | 10.00356 | 35963 ft | 457 kts | 188° |
| 2026-05-06 18:37 | 57.10759 | 9.99636 | 35964 ft | 458 kts | 186° |
| 2026-05-06 18:37 | 57.04360 | 9.99469 | 35962 ft | 459 kts | 184° |
| 2026-05-06 18:38 | 56.97961 | 9.99517 | 35960 ft | 460 kts | 184° |
| 2026-05-06 18:38 | 56.91599 | 9.99549 | 35965 ft | 460 kts | 184° |
| 2026-05-06 18:39 | 56.85198 | 9.99552 | 35957 ft | 460 kts | 184° |
| 2026-05-06 18:40 | 56.75592 | 9.99541 | 35958 ft | 460 kts | 184° |
| 2026-05-06 18:40 | 56.69182 | 9.99534 | 35957 ft | 460 kts | 184° |
| 2026-05-06 18:41 | 56.62812 | 9.99527 | 35950 ft | 460 kts | 184° |
| 2026-05-06 18:41 | 56.56402 | 9.99521 | 35954 ft | 460 kts | 184° |
| 2026-05-06 18:42 | 56.49978 | 9.99513 | 35944 ft | 461 kts | 184° |
| 2026-05-06 18:42 | 56.43564 | 9.99505 | 35946 ft | 461 kts | 184° |
| 2026-05-06 18:43 | 56.37145 | 9.99497 | 35948 ft | 461 kts | 184° |
| 2026-05-06 18:43 | 56.30767 | 9.99489 | 35945 ft | 461 kts | 184° |
| 2026-05-06 18:44 | 56.24339 | 9.99481 | 35945 ft | 461 kts | 184° |
| 2026-05-06 18:44 | 56.17914 | 9.99473 | 35944 ft | 461 kts | 184° |
| 2026-05-06 18:45 | 56.11485 | 9.99465 | 35943 ft | 462 kts | 184° |
| 2026-05-06 18:45 | 56.05050 | 9.99463 | 35939 ft | 462 kts | 184° |
| 2026-05-06 18:46 | 55.98659 | 9.99463 | 35941 ft | 462 kts | 183° |
| 2026-05-06 18:46 | 55.92222 | 9.99461 | 35937 ft | 462 kts | 183° |
| 2026-05-06 18:47 | 55.85771 | 9.99456 | 35936 ft | 462 kts | 183° |
| 2026-05-06 18:47 | 55.79363 | 9.99451 | 35934 ft | 463 kts | 183° |
| 2026-05-06 18:48 | 55.72911 | 9.99446 | 35943 ft | 463 kts | 183° |
| 2026-05-06 18:48 | 55.66495 | 9.99442 | 35954 ft | 463 kts | 183° |
| 2026-05-06 18:49 | 55.60040 | 9.99437 | 35953 ft | 463 kts | 183° |
| 2026-05-06 18:49 | 55.53584 | 9.99430 | 35958 ft | 463 kts | 183° |
| 2026-05-06 18:50 | 55.47169 | 9.99422 | 35955 ft | 463 kts | 183° |
| 2026-05-06 18:50 | 55.40711 | 9.99414 | 35954 ft | 464 kts | 183° |
| 2026-05-06 18:51 | 55.34246 | 9.99406 | 35949 ft | 464 kts | 183° |
| 2026-05-06 18:51 | 55.27784 | 9.99399 | 35944 ft | 464 kts | 183° |
| 2026-05-06 18:52 | 55.21321 | 9.99392 | 35940 ft | 464 kts | 183° |
| 2026-05-06 18:52 | 55.14882 | 9.99385 | 35939 ft | 465 kts | 183° |
| 2026-05-06 18:53 | 55.08394 | 9.99378 | 35937 ft | 465 kts | 182° |
| 2026-05-06 18:53 | 55.01922 | 9.99371 | 35939 ft | 465 kts | 182° |
| 2026-05-06 18:54 | 54.95431 | 9.99364 | 35937 ft | 465 kts | 182° |
| 2026-05-06 18:54 | 54.89008 | 9.98938 | 35936 ft | 463 kts | 189° |
| 2026-05-06 18:55 | 54.82676 | 9.97031 | 35935 ft | 462 kts | 193° |
| 2026-05-06 18:55 | 54.76361 | 9.94802 | 35931 ft | 462 kts | 193° |
| 2026-05-06 18:56 | 54.70080 | 9.92670 | 35929 ft | 463 kts | 193° |
| 2026-05-06 18:56 | 54.63750 | 9.90602 | 35920 ft | 463 kts | 193° |
| 2026-05-06 18:57 | 54.57409 | 9.88575 | 35916 ft | 463 kts | 192° |
| 2026-05-06 18:57 | 54.51061 | 9.86554 | 35932 ft | 463 kts | 192° |
| 2026-05-06 18:58 | 54.44714 | 9.84524 | 35927 ft | 463 kts | 192° |
| 2026-05-06 18:58 | 54.38405 | 9.82504 | 35912 ft | 464 kts | 192° |
| 2026-05-06 18:59 | 54.32037 | 9.80470 | 35911 ft | 464 kts | 192° |
| 2026-05-06 18:59 | 54.25683 | 9.78445 | 35910 ft | 464 kts | 193° |
| 2026-05-06 19:00 | 54.19332 | 9.76320 | 35908 ft | 464 kts | 193° |
| 2026-05-06 19:00 | 54.13021 | 9.74142 | 35907 ft | 465 kts | 193° |
| 2026-05-06 19:01 | 54.06677 | 9.71954 | 35906 ft | 465 kts | 193° |
| 2026-05-06 19:01 | 54.00327 | 9.69778 | 35902 ft | 465 kts | 193° |
| 2026-05-06 19:02 | 53.94010 | 9.67624 | 35900 ft | 465 kts | 193° |
| 2026-05-06 19:02 | 53.87651 | 9.65462 | 35900 ft | 466 kts | 193° |
| 2026-05-06 19:03 | 53.81294 | 9.63307 | 35901 ft | 466 kts | 193° |
| 2026-05-06 19:03 | 53.74934 | 9.61158 | 35900 ft | 466 kts | 193° |
| 2026-05-06 19:04 | 53.68564 | 9.59012 | 35897 ft | 466 kts | 193° |
| 2026-05-06 19:04 | 53.62178 | 9.57451 | 35904 ft | 468 kts | 187° |
| 2026-05-06 19:05 | 53.55679 | 9.56709 | 35912 ft | 468 kts | 185° |
| 2026-05-06 19:05 | 53.49184 | 9.55813 | 35906 ft | 467 kts | 188° |
| 2026-05-06 19:06 | 53.42725 | 9.54449 | 35901 ft | 467 kts | 189° |
| 2026-05-06 19:06 | 53.36327 | 9.53016 | 35896 ft | 466 kts | 189° |
| 2026-05-06 19:07 | 53.29898 | 9.51603 | 35891 ft | 466 kts | 189° |
| 2026-05-06 19:07 | 53.23469 | 9.50213 | 35887 ft | 465 kts | 189° |
| 2026-05-06 19:08 | 53.17050 | 9.48834 | 35885 ft | 465 kts | 189° |
| 2026-05-06 19:08 | 53.10632 | 9.47460 | 35876 ft | 464 kts | 189° |
| 2026-05-06 19:09 | 53.04227 | 9.46092 | 35868 ft | 463 kts | 189° |
| 2026-05-06 19:09 | 52.97868 | 9.44737 | 35871 ft | 463 kts | 189° |
| 2026-05-06 19:10 | 52.91467 | 9.43373 | 35867 ft | 462 kts | 189° |
| 2026-05-06 19:10 | 52.85083 | 9.42010 | 35863 ft | 462 kts | 189° |
| 2026-05-06 19:11 | 52.78792 | 9.40669 | 35856 ft | 461 kts | 189° |
| 2026-05-06 19:11 | 52.72417 | 9.39314 | 35855 ft | 461 kts | 189° |
| 2026-05-06 19:12 | 52.66059 | 9.37967 | 35855 ft | 460 kts | 189° |
| 2026-05-06 19:12 | 52.59709 | 9.36509 | 35854 ft | 459 kts | 191° |
| 2026-05-06 19:13 | 52.53393 | 9.34856 | 35854 ft | 459 kts | 191° |
| 2026-05-06 19:13 | 52.47127 | 9.33192 | 35855 ft | 458 kts | 191° |
| 2026-05-06 19:14 | 52.40829 | 9.31538 | 35855 ft | 458 kts | 191° |
| 2026-05-06 19:14 | 52.34530 | 9.29896 | 35853 ft | 457 kts | 191° |
| 2026-05-06 19:15 | 52.28239 | 9.28256 | 35853 ft | 457 kts | 191° |
| 2026-05-06 19:15 | 52.21973 | 9.26718 | 35854 ft | 457 kts | 189° |
| 2026-05-06 19:16 | 52.15659 | 9.25527 | 35848 ft | 456 kts | 188° |
| 2026-05-06 19:16 | 52.09348 | 9.24418 | 35846 ft | 456 kts | 188° |
| 2026-05-06 19:17 | 52.03057 | 9.23149 | 35840 ft | 454 kts | 190° |
| 2026-05-06 19:17 | 51.96852 | 9.21547 | 35833 ft | 453 kts | 191° |
| 2026-05-06 19:18 | 51.90625 | 9.19885 | 35834 ft | 453 kts | 191° |
| 2026-05-06 19:18 | 51.84458 | 9.17810 | 35828 ft | 451 kts | 198° |
| 2026-05-06 19:19 | 51.78705 | 9.13840 | 35826 ft | 449 kts | 211° |
| 2026-05-06 19:19 | 51.73719 | 9.07814 | 35851 ft | 448 kts | 224° |
| 2026-05-06 19:20 | 51.69725 | 9.00253 | 35856 ft | 449 kts | 236° |
| 2026-05-06 19:20 | 51.66783 | 8.91420 | 35713 ft | 452 kts | 245° |
| 2026-05-06 19:20 | 51.65538 | 8.86777 | 35339 ft | 449 kts | 242° |
| 2026-05-06 19:21 | 51.63913 | 8.82492 | 34897 ft | 448 kts | 232° |
| 2026-05-06 19:21 | 51.61946 | 8.78615 | 34476 ft | 447 kts | 228° |
| 2026-05-06 19:21 | 51.60566 | 8.76153 | 34200 ft | 448 kts | 227° |
| 2026-05-06 19:21 | 51.58441 | 8.72486 | 33705 ft | 448 kts | 226° |
| 2026-05-06 19:22 | 51.56312 | 8.68819 | 33144 ft | 448 kts | 227° |
| 2026-05-06 19:22 | 51.54195 | 8.65125 | 32607 ft | 450 kts | 227° |
| 2026-05-06 19:22 | 51.52083 | 8.61391 | 32065 ft | 452 kts | 228° |
| 2026-05-06 19:22 | 51.49968 | 8.57617 | 31544 ft | 455 kts | 228° |
| 2026-05-06 19:23 | 51.47853 | 8.53827 | 31032 ft | 457 kts | 228° |
| 2026-05-06 19:23 | 51.45725 | 8.50008 | 30515 ft | 459 kts | 228° |
| 2026-05-06 19:23 | 51.43620 | 8.46234 | 29888 ft | 460 kts | 228° |
| 2026-05-06 19:23 | 51.41492 | 8.42424 | 29159 ft | 458 kts | 228° |
| 2026-05-06 19:24 | 51.39373 | 8.38637 | 28470 ft | 454 kts | 228° |
| 2026-05-06 19:24 | 51.37275 | 8.34893 | 27785 ft | 450 kts | 228° |
| 2026-05-06 19:24 | 51.35188 | 8.31176 | 27114 ft | 445 kts | 228° |
| 2026-05-06 19:24 | 51.33128 | 8.27514 | 26458 ft | 441 kts | 228° |
| 2026-05-06 19:25 | 51.31078 | 8.23874 | 25820 ft | 438 kts | 228° |
| 2026-05-06 19:25 | 51.29047 | 8.20275 | 25206 ft | 434 kts | 228° |
| 2026-05-06 19:25 | 51.27033 | 8.16710 | 24584 ft | 431 kts | 228° |
| 2026-05-06 19:25 | 51.25029 | 8.13167 | 23986 ft | 428 kts | 228° |
| 2026-05-06 19:26 | 51.23042 | 8.09659 | 23390 ft | 424 kts | 228° |
| 2026-05-06 19:26 | 51.21067 | 8.06179 | 22700 ft | 421 kts | 228° |
| 2026-05-06 19:26 | 51.19108 | 8.02730 | 22039 ft | 417 kts | 228° |
| 2026-05-06 19:26 | 51.17189 | 7.99356 | 21376 ft | 414 kts | 228° |
| 2026-05-06 19:27 | 51.15267 | 7.95983 | 20716 ft | 406 kts | 228° |
| 2026-05-06 19:27 | 51.13391 | 7.92696 | 20252 ft | 394 kts | 229° |
| 2026-05-06 19:27 | 51.11565 | 7.89499 | 19877 ft | 381 kts | 229° |
| 2026-05-06 19:27 | 51.09809 | 7.86430 | 19569 ft | 367 kts | 228° |
| 2026-05-06 19:28 | 51.08129 | 7.83528 | 19279 ft | 355 kts | 227° |
| 2026-05-06 19:28 | 51.06305 | 7.80991 | 18979 ft | 345 kts | 216° |
| 2026-05-06 19:28 | 51.04293 | 7.79010 | 18684 ft | 335 kts | 211° |
| 2026-05-06 19:28 | 51.02271 | 7.77267 | 18386 ft | 327 kts | 209° |
| 2026-05-06 19:29 | 51.00268 | 7.75597 | 17975 ft | 324 kts | 209° |
| 2026-05-06 19:29 | 50.98275 | 7.73933 | 17462 ft | 321 kts | 209° |
| 2026-05-06 19:29 | 50.96309 | 7.72280 | 16971 ft | 319 kts | 210° |
| 2026-05-06 19:29 | 50.94358 | 7.70631 | 16467 ft | 317 kts | 209° |
| 2026-05-06 19:30 | 50.92424 | 7.68985 | 16000 ft | 314 kts | 211° |
| 2026-05-06 19:30 | 50.90694 | 7.67064 | 15531 ft | 310 kts | 223° |
| 2026-05-06 19:30 | 50.89271 | 7.64525 | 15076 ft | 307 kts | 237° |
| 2026-05-06 19:30 | 50.88288 | 7.61603 | 14617 ft | 304 kts | 249° |
| 2026-05-06 19:31 | 50.87566 | 7.58458 | 14151 ft | 303 kts | 252° |
| 2026-05-06 19:31 | 50.86910 | 7.55300 | 13706 ft | 301 kts | 253° |
| 2026-05-06 19:31 | 50.85608 | 7.49001 | 12704 ft | 300 kts | 253° |
| 2026-05-06 19:32 | 50.84950 | 7.45870 | 12218 ft | 299 kts | 253° |
| 2026-05-06 19:32 | 50.84287 | 7.42746 | 11750 ft | 299 kts | 253° |
| 2026-05-06 19:32 | 50.83625 | 7.39677 | 11285 ft | 298 kts | 253° |
| 2026-05-06 19:32 | 50.82940 | 7.36540 | 10823 ft | 298 kts | 253° |
| 2026-05-06 19:33 | 50.82255 | 7.33457 | 10393 ft | 297 kts | 253° |
| 2026-05-06 19:33 | 50.81567 | 7.30402 | 9976 ft | 297 kts | 253° |
| 2026-05-06 19:33 | 50.80866 | 7.27337 | 9548 ft | 296 kts | 253° |
| 2026-05-06 19:33 | 50.80167 | 7.24296 | 9144 ft | 293 kts | 253° |
| 2026-05-06 19:34 | 50.79478 | 7.21286 | 8739 ft | 290 kts | 253° |
| 2026-05-06 19:34 | 50.78805 | 7.18334 | 8358 ft | 287 kts | 253° |
| 2026-05-06 19:34 | 50.78134 | 7.15372 | 7962 ft | 285 kts | 253° |
| 2026-05-06 19:34 | 50.77473 | 7.12439 | 7587 ft | 282 kts | 253° |
| 2026-05-06 19:35 | 50.76825 | 7.09556 | 7210 ft | 280 kts | 253° |
| 2026-05-06 19:35 | 50.76181 | 7.06671 | 6845 ft | 278 kts | 253° |
| 2026-05-06 19:35 | 50.75417 | 7.03889 | 6453 ft | 277 kts | 241° |
| 2026-05-06 19:35 | 50.74230 | 7.01496 | 6080 ft | 278 kts | 225° |
| 2026-05-06 19:36 | 50.72682 | 6.99694 | 5675 ft | 278 kts | 210° |
| 2026-05-06 19:36 | 50.70880 | 6.98606 | 5289 ft | 278 kts | 194° |
| 2026-05-06 19:36 | 50.68962 | 6.98332 | 5039 ft | 276 kts | 177° |
| 2026-05-06 19:36 | 50.67090 | 6.98897 | 5004 ft | 267 kts | 160° |
| 2026-05-06 19:37 | 50.65486 | 7.00182 | 4987 ft | 252 kts | 143° |
| 2026-05-06 19:37 | 50.64240 | 7.02062 | 4993 ft | 247 kts | 127° |
| 2026-05-06 19:37 | 50.63227 | 7.04254 | 5010 ft | 247 kts | 123° |
| 2026-05-06 19:37 | 50.62247 | 7.06482 | 5004 ft | 247 kts | 123° |
| 2026-05-06 19:38 | 50.61268 | 7.08709 | 5005 ft | 248 kts | 123° |
| 2026-05-06 19:38 | 50.60295 | 7.10920 | 5005 ft | 248 kts | 123° |
| 2026-05-06 19:38 | 50.59347 | 7.13181 | 4989 ft | 247 kts | 116° |
| 2026-05-06 19:38 | 50.58763 | 7.15689 | 4997 ft | 243 kts | 98° |
| 2026-05-06 19:39 | 50.58534 | 7.18315 | 4998 ft | 243 kts | 93° |
| 2026-05-06 19:39 | 50.58368 | 7.20968 | 5001 ft | 243 kts | 93° |
| 2026-05-06 19:39 | 50.58207 | 7.23614 | 4995 ft | 243 kts | 93° |
| 2026-05-06 19:39 | 50.58048 | 7.26262 | 4990 ft | 243 kts | 93° |
| 2026-05-06 19:40 | 50.58033 | 7.28900 | 4985 ft | 240 kts | 79° |
| 2026-05-06 19:40 | 50.58479 | 7.31399 | 5006 ft | 237 kts | 65° |
| 2026-05-06 19:40 | 50.59131 | 7.33760 | 4998 ft | 237 kts | 63° |
| 2026-05-06 19:40 | 50.59808 | 7.36123 | 4994 ft | 237 kts | 63° |
| 2026-05-06 19:41 | 50.60489 | 7.38490 | 4993 ft | 237 kts | 63° |
| 2026-05-06 19:41 | 50.61170 | 7.40853 | 4995 ft | 237 kts | 63° |
| 2026-05-06 19:41 | 50.61852 | 7.43218 | 4999 ft | 237 kts | 63° |
| 2026-05-06 19:41 | 50.62534 | 7.45584 | 4982 ft | 237 kts | 63° |
| 2026-05-06 19:42 | 50.63215 | 7.47949 | 4999 ft | 238 kts | 63° |
| 2026-05-06 19:42 | 50.64027 | 7.50204 | 4985 ft | 235 kts | 49° |
| 2026-05-06 19:42 | 50.65206 | 7.51944 | 4986 ft | 232 kts | 31° |
| 2026-05-06 19:42 | 50.66627 | 7.52973 | 4983 ft | 215 kts | 13° |
| 2026-05-06 19:43 | 50.68007 | 7.53170 | 4931 ft | 191 kts | 353° |
| 2026-05-06 19:43 | 50.69240 | 7.52607 | 4652 ft | 183 kts | 332° |
| 2026-05-06 19:43 | 50.70218 | 7.51349 | 4238 ft | 181 kts | 309° |
| 2026-05-06 19:43 | 50.70707 | 7.49525 | 3850 ft | 182 kts | 284° |
| 2026-05-06 19:44 | 50.70931 | 7.47567 | 3512 ft | 181 kts | 283° |
| 2026-05-06 19:44 | 50.71152 | 7.45612 | 3154 ft | 180 kts | 283° |
| 2026-05-06 19:44 | 50.71365 | 7.43697 | 3003 ft | 178 kts | 283° |
| 2026-05-06 19:44 | 50.71581 | 7.41756 | 2990 ft | 180 kts | 283° |
| 2026-05-06 19:45 | 50.71796 | 7.39814 | 2999 ft | 179 kts | 283° |
| 2026-05-06 19:45 | 50.72013 | 7.37870 | 2996 ft | 179 kts | 283° |
| 2026-05-06 19:45 | 50.72287 | 7.35958 | 2983 ft | 178 kts | 298° |
| 2026-05-06 19:45 | 50.73054 | 7.34544 | 3017 ft | 173 kts | 320° |
| 2026-05-06 19:46 | 50.73961 | 7.33268 | 3011 ft | 174 kts | 319° |
| 2026-05-06 19:46 | 50.74852 | 7.31970 | 3003 ft | 175 kts | 319° |
| 2026-05-06 19:46 | 50.75749 | 7.30670 | 3015 ft | 174 kts | 319° |
| 2026-05-06 19:46 | 50.76655 | 7.29362 | 2832 ft | 176 kts | 319° |
| 2026-05-06 19:47 | 50.77553 | 7.28065 | 2568 ft | 175 kts | 319° |
| 2026-05-06 19:47 | 50.78446 | 7.26777 | 2328 ft | 174 kts | 319° |
| 2026-05-06 19:47 | 50.79341 | 7.25487 | 2092 ft | 174 kts | 319° |
| 2026-05-06 19:47 | 50.80230 | 7.24204 | 1852 ft | 172 kts | 319° |
| 2026-05-06 19:48 | 50.81110 | 7.22934 | 1615 ft | 171 kts | 319° |
| 2026-05-06 19:48 | 50.81984 | 7.21673 | 1365 ft | 170 kts | 318° |
| 2026-05-06 19:48 | 50.82864 | 7.20400 | 1121 ft | 171 kts | 318° |
| 2026-05-06 19:48 | 50.83745 | 7.19122 | 891 ft | 174 kts | 317° |
| 2026-05-06 19:49 | 50.84618 | 7.17831 | 579 ft | 173 kts | 316° |
| 2026-05-06 19:49 | 50.85506 | 7.16569 | 385 ft | 172 kts | 319° |
| 2026-05-06 19:49 | 50.86315 | 7.15415 | 300 ft | 133 kts | 317° |
| 2026-05-06 19:49 | 50.86872 | 7.14609 | 269 ft | 78 kts | 318° |
| 2026-05-06 19:50 | 50.87162 | 7.14191 | 256 ft | 42 kts | 317° |
| 2026-05-06 19:50 | 50.87302 | 7.13852 | 248 ft | 28 kts | 287° |
| 2026-05-06 19:50 | 50.87324 | 7.13665 | 244 ft | 5 kts | 279° |
| 2026-05-06 19:50 | 50.87325 | 7.13653 | 244 ft | 0 kts | 279° |
| 2026-05-06 19:51 | 50.87326 | 7.13648 | 244 ft | 2 kts | 279° |
| 2026-05-06 19:51 | 50.87332 | 7.13594 | 243 ft | 8 kts | 279° |
| 2026-05-06 19:52 | 50.87344 | 7.13472 | 240 ft | 11 kts | 279° |
| 2026-05-06 19:52 | 50.87343 | 7.13409 | 240 ft | 2 kts | 241° |
| 2026-05-06 19:52 | 50.87327 | 7.13393 | 240 ft | 4 kts | 203° |
| 2026-05-06 19:52 | 50.87298 | 7.13400 | 240 ft | 4 kts | 160° |
| 2026-05-06 19:53 | 50.87274 | 7.13418 | 241 ft | 4 kts | 158° |
| 2026-05-06 19:53 | 50.87255 | 7.13412 | 241 ft | 2 kts | 204° |
| 2026-05-06 19:53 | 50.87234 | 7.13383 | 241 ft | 5 kts | 224° |
| 2026-05-06 19:53 | 50.87217 | 7.13355 | 241 ft | 3 kts | 227° |
| 2026-05-06 19:54 | 50.87204 | 7.13332 | 241 ft | 1 kts | 227° |
| 2026-05-06 19:54 | 50.87202 | 7.13329 | 241 ft | 0 kts | 227° |